Terminal Aerodrome Forecast
Issued by NWS

Current Version | Previous Version | Text Only | Print | Product List | Glossary On
Versions: 1 2 3 4 5 6 7 8 9 10 11 12 13 14 15 16 17 18 19 20 21 22 23
000
FTAK31 PAFA 051130
TAFAOR
TAF
PAOR 051130Z 0512/0612 00000KT P6SM SCT035 BKN050 OVC100
     FM051500 VRB02KT P6SM VCFG SCT035 BKN050 OVC100
     FM052100 VRB04KT P6SM SCT035 BKN050 OVC100=

USA.gov is the U.S. government's official web portal to all federal, state and local government web resources and services.